Time;durP1;ratioP1;P1;durP2;ratioP2;P2;SDS_P1;SDS_P2;PMS_P1;PMS_P2;Temp;Humidity;BMP_temperature;BMP_pressure;BME280_temperature;BME280_humidity;BME280_pressure;Samples;Min_cycle;Max_cycle;Signal;HPM_P1;HPM_P2
2022/03/24 00:00:59;;;;;;;6.87;6.20;;;;;;;21.56;23.72;95868.38;6173553;28;104266;-46
2022/03/24 00:04:02;;;;;;;7.27;6.60;;;;;;;21.56;24.16;95873.72;6178418;28;103293;-45
2022/03/24 00:07:04;;;;;;;7.37;6.70;;;;;;;21.54;23.99;95859.09;6168713;28;103256;-45
2022/03/24 00:10:07;;;;;;;7.10;6.50;;;;;;;21.52;23.90;95849.50;6201635;28;103211;-45
2022/03/24 00:13:10;;;;;;;8.10;7.40;;;;;;;21.56;23.99;95856.94;6183182;28;103684;-46
2022/03/24 00:16:11;;;;;;;7.40;6.27;;;;;;;21.55;23.98;95850.03;6181707;28;104070;-45
2022/03/24 00:19:16;;;;;;;7.17;6.57;;;;;;;21.56;23.84;95843.63;6185443;28;103442;-45
2022/03/24 00:22:18;;;;;;;6.80;6.20;;;;;;;21.55;24.17;95844.69;6185995;28;103244;-46
2022/03/24 00:25:20;;;;;;;6.63;6.07;;;;;;;21.54;23.95;95835.91;6186148;28;103347;-44
2022/03/24 00:28:22;;;;;;;6.73;6.23;;;;;;;21.54;23.79;95827.13;6166262;28;103277;-45
2022/03/24 00:31:24;;;;;;;6.60;6.00;;;;;;;21.54;23.78;95821.81;6184774;28;103725;-46
2022/03/24 00:34:26;;;;;;;7.37;6.67;;;;;;;21.55;24.12;95826.06;6185432;28;102994;-47
2022/03/24 00:37:28;;;;;;;6.80;6.20;;;;;;;21.48;23.90;95815.72;6181184;28;103945;-45
2022/03/24 00:40:29;;;;;;;8.03;6.20;;;;;;;21.53;23.85;95821.00;6184884;28;104009;-45
2022/03/24 00:43:32;;;;;;;6.77;6.17;;;;;;;21.52;23.81;95817.56;6184848;28;102914;-45
2022/03/24 00:46:34;;;;;;;6.47;5.97;;;;;;;21.52;23.91;95820.22;6185408;28;103013;-45
2022/03/24 00:49:37;;;;;;;6.67;6.07;;;;;;;21.52;23.73;95808.78;6176839;28;103393;-45
2022/03/24 00:52:42;;;;;;;6.47;5.97;;;;;;;21.52;23.58;95812.22;6185938;28;104116;-45
2022/03/24 00:55:44;;;;;;;7.67;6.87;;;;;;;21.50;23.64;95814.34;6186148;28;103166;-45
2022/03/24 00:58:46;;;;;;;6.90;6.23;;;;;;;21.51;23.83;95809.84;6185268;28;102944;-45
2022/03/24 01:01:48;;;;;;;6.87;6.27;;;;;;;21.49;24.02;95804.78;6177833;28;103976;-41
2022/03/24 01:04:51;;;;;;;6.17;5.63;;;;;;;21.51;23.70;95813.31;6171897;28;102999;-42
2022/03/24 01:07:53;;;;;;;7.10;6.40;;;;;;;21.50;23.63;95806.38;6185756;28;102815;-43
2022/03/24 01:10:55;;;;;;;6.63;6.13;;;;;;;21.52;23.38;95808.78;6176877;28;103225;-41
2022/03/24 01:13:57;;;;;;;7.60;6.80;;;;;;;21.50;23.63;95806.38;6181223;28;103519;-42
2022/03/24 01:17:02;;;;;;;7.27;6.67;;;;;;;21.52;23.67;95806.09;6185916;28;103742;-42
2022/03/24 01:20:05;;;;;;;6.60;6.10;;;;;;;21.49;23.68;95794.13;6183872;28;103027;-42
2022/03/24 01:23:07;;;;;;;6.90;6.30;;;;;;;21.50;23.39;95811.69;6175830;28;104613;-41
2022/03/24 01:26:09;;;;;;;6.73;6.13;;;;;;;21.49;23.45;95802.13;6167598;28;103206;-42
2022/03/24 01:29:12;;;;;;;7.30;6.60;;;;;;;21.49;23.46;95807.44;6184193;28;103406;-42
2022/03/24 01:32:13;;;;;;;7.10;6.40;;;;;;;21.47;23.81;95801.63;6185306;28;103345;-42
2022/03/24 01:35:16;;;;;;;6.60;6.00;;;;;;;21.48;23.77;95797.06;6169410;28;102959;-42
2022/03/24 01:38:19;;;;;;;7.80;7.00;;;;;;;21.46;23.41;95802.69;6179324;28;103442;-41
2022/03/24 01:41:22;;;;;;;8.03;7.23;;;;;;;21.47;23.53;95796.28;6177374;28;103259;-42
2022/03/24 01:44:24;;;;;;;7.40;6.70;;;;;;;21.48;23.75;95799.75;6177560;28;103614;-41
2022/03/24 01:47:25;;;;;;;7.60;7.00;;;;;;;21.46;23.27;95792.03;6184783;28;103288;-42
2022/03/24 01:50:27;;;;;;;7.73;7.07;;;;;;;21.46;23.59;95786.72;6181135;28;104237;-42
2022/03/24 01:53:29;;;;;;;8.70;7.90;;;;;;;21.42;23.68;95767.06;6183542;28;102795;-42
2022/03/24 01:56:31;;;;;;;8.30;7.50;;;;;;;21.45;23.30;95790.44;6175632;28;105643;-41
2022/03/24 01:59:33;;;;;;;8.27;7.57;;;;;;;21.46;23.59;95768.06;6172959;28;103221;-42
2022/03/24 02:02:37;;;;;;;7.97;7.27;;;;;;;21.46;23.56;95772.59;6184398;28;104040;-42
2022/03/24 02:05:40;;;;;;;8.43;7.70;;;;;;;21.46;23.43;95769.94;6162208;28;103144;-42
2022/03/24 02:08:42;;;;;;;9.13;8.23;;;;;;;21.45;23.41;95771.81;6162866;28;102986;-42
2022/03/24 02:11:43;;;;;;;8.50;7.70;;;;;;;21.43;23.25;95768.66;6181795;28;103955;-42
2022/03/24 02:14:45;;;;;;;8.90;8.10;;;;;;;21.40;23.65;95765.75;6178766;28;103209;-42
2022/03/24 02:17:48;;;;;;;7.70;7.10;;;;;;;21.43;23.49;95765.97;6154274;28;104177;-42
2022/03/24 02:20:51;;;;;;;8.77;7.87;;;;;;;21.43;23.29;95759.88;6159538;28;103632;-42
2022/03/24 02:23:53;;;;;;;8.73;7.93;;;;;;;21.44;23.27;95764.13;6169544;28;104005;-42
2022/03/24 02:26:59;;;;;;;9.10;8.30;;;;;;;21.40;23.51;95749.78;6179916;28;102853;-41
2022/03/24 02:30:03;;;;;;;9.57;8.67;;;;;;;21.43;23.36;95768.66;6154535;28;103893;-41
2022/03/24 02:33:05;;;;;;;8.77;7.97;;;;;;;21.38;23.27;95757.25;6171128;28;106254;-41
2022/03/24 02:36:07;;;;;;;9.03;8.23;;;;;;;21.39;23.45;95756.97;6181598;28;103573;-42
2022/03/24 02:39:10;;;;;;;8.40;7.60;;;;;;;21.38;23.21;95749.28;6170401;28;102765;-42
2022/03/24 02:42:16;;;;;;;10.33;9.33;;;;;;;21.42;23.41;95761.72;6164225;28;103467;-43
2022/03/24 02:45:18;;;;;;;9.10;8.30;;;;;;;21.40;23.30;95749.78;6184286;28;104168;-42
2022/03/24 02:48:23;;;;;;;9.70;8.70;;;;;;;21.41;23.32;95754.81;6180823;28;102822;-42
2022/03/24 02:51:25;;;;;;;8.53;7.83;;;;;;;21.37;23.25;95750.34;6169964;28;104191;-42
2022/03/24 02:54:28;;;;;;;9.53;8.63;;;;;;;21.42;23.52;95758.28;6182342;28;104230;-42
2022/03/24 02:57:30;;;;;;;8.97;8.17;;;;;;;21.35;23.17;95736.53;6159826;28;103095;-42
2022/03/24 03:00:32;;;;;;;8.40;7.70;;;;;;;21.40;23.23;95753.25;6155736;28;103971;-42
2022/03/24 03:03:34;;;;;;;8.50;7.73;;;;;;;21.41;23.38;95749.50;6182235;28;102946;-42
2022/03/24 03:06:39;;;;;;;9.63;8.73;;;;;;;21.40;23.37;95747.91;6164587;28;103315;-42
2022/03/24 03:09:42;;;;;;;9.93;9.07;;;;;;;21.41;23.59;95754.81;6158932;28;103280;-43
2022/03/24 03:12:46;;;;;;;9.80;8.87;;;;;;;21.39;23.36;95751.66;6158105;28;102939;-43
2022/03/24 03:15:48;;;;;;;9.50;8.60;;;;;;;21.37;23.04;95748.50;6175333;28;103520;-43
2022/03/24 03:18:50;;;;;;;9.10;8.30;;;;;;;21.39;23.16;95759.66;6186092;28;102914;-43
2022/03/24 03:21:53;;;;;;;10.03;9.23;;;;;;;21.39;22.98;95767.63;6186370;28;105249;-43
2022/03/24 03:24:55;;;;;;;9.10;8.30;;;;;;;21.38;23.18;95760.72;6178291;28;102958;-42
2022/03/24 03:27:57;;;;;;;10.17;9.27;;;;;;;21.37;23.09;95748.50;6163277;28;104146;-42
2022/03/24 03:30:59;;;;;;;10.13;9.23;;;;;;;21.36;23.34;95751.44;6166160;28;103937;-43
2022/03/24 03:34:01;;;;;;;10.30;9.30;;;;;;;21.37;23.48;95748.50;6181522;28;102997;-44
2022/03/24 03:37:04;;;;;;;10.93;9.83;;;;;;;21.35;23.19;95769.28;6186319;28;104101;-42
2022/03/24 03:40:06;;;;;;;10.07;9.17;;;;;;;21.35;23.46;95758.63;6177850;28;104381;-44
2022/03/24 03:43:09;;;;;;;11.23;10.13;;;;;;;21.30;23.37;95748.03;6185489;28;103122;-43
2022/03/24 03:46:11;;;;;;;10.30;9.40;;;;;;;21.37;23.40;95753.03;6180799;28;104516;-44
2022/03/24 03:49:14;;;;;;;10.33;9.30;;;;;;;21.36;23.47;95748.78;6186149;28;104380;-42
2022/03/24 03:52:15;;;;;;;10.70;9.80;;;;;;;21.35;23.62;95750.66;6186176;28;104058;-42
2022/03/24 03:55:17;;;;;;;10.30;9.30;;;;;;;21.36;24.07;95757.56;6174448;28;104348;-43
2022/03/24 03:58:19;;;;;;;10.50;9.50;;;;;;;21.35;23.96;95763.97;6185590;28;103293;-41
2022/03/24 04:01:21;;;;;;;11.43;10.40;;;;;;;21.36;23.78;95760.22;6184930;28;104103;-42
2022/03/24 04:04:22;;;;;;;11.77;10.70;;;;;;;21.33;23.74;95760.75;6168598;28;103658;-42
2022/03/24 04:07:24;;;;;;;11.37;10.37;;;;;;;21.30;23.69;95760.53;6178011;28;103114;-42
2022/03/24 04:10:27;;;;;;;11.47;10.37;;;;;;;21.36;23.94;95756.75;6185404;28;103738;-42
2022/03/24 04:13:29;;;;;;;11.63;10.30;;;;;;;21.35;24.04;95755.97;6165986;28;103246;-42
2022/03/24 04:16:31;;;;;;;11.17;10.13;;;;;;;21.37;24.64;95753.03;6161877;28;103913;-42
2022/03/24 04:19:33;;;;;;;11.80;10.60;;;;;;;21.35;24.84;95766.63;6158382;28;104443;-43
2022/03/24 04:22:35;;;;;;;14.80;11.23;;;;;;;21.40;26.32;95763.09;6175501;28;103361;-42
2022/03/24 04:25:38;;;;;;;11.50;10.40;;;;;;;21.41;26.86;95764.69;6172692;28;104346;-43
2022/03/24 04:28:43;;;;;;;11.50;10.20;;;;;;;21.44;26.42;95762.25;6160960;28;103261;-42
2022/03/24 04:31:45;;;;;;;12.50;11.30;;;;;;;21.39;25.83;95750.88;6169520;28;104183;-42
2022/03/24 04:34:47;;;;;;;11.50;10.50;;;;;;;21.40;25.49;95761.22;6162176;28;103444;-42
2022/03/24 04:37:50;;;;;;;12.43;11.23;;;;;;;21.44;25.68;95762.25;6161871;28;103048;-43
2022/03/24 04:40:54;;;;;;;13.33;11.97;;;;;;;21.40;25.40;95768.44;6161995;28;104047;-42
2022/03/24 04:43:55;;;;;;;13.13;11.70;;;;;;;21.38;25.34;95771.38;6175576;28;103098;-42
2022/03/24 04:46:57;;;;;;;20.47;18.17;;;;;;;21.37;24.76;95774.31;6196385;28;103651;-43
2022/03/24 04:49:59;;;;;;;24.10;20.00;;;;;;;21.32;24.42;95772.47;6172364;28;103074;-43
2022/03/24 04:53:01;;;;;;;20.20;18.10;;;;;;;21.33;24.78;95771.41;6181661;28;104407;-42
2022/03/24 04:56:03;;;;;;;21.10;18.80;;;;;;;21.44;24.52;95767.56;6183606;28;103403;-43
2022/03/24 04:59:05;;;;;;;20.43;18.33;;;;;;;21.54;24.69;95784.53;6187470;27;104105;-42
2022/03/24 05:02:08;;;;;;;18.80;16.53;;;;;;;21.60;24.20;95775.38;6198064;28;103240;-43
2022/03/24 05:05:10;;;;;;;20.97;18.37;;;;;;;21.66;23.80;95775.03;6196303;28;103318;-42
2022/03/24 05:08:12;;;;;;;20.73;18.43;;;;;;;21.73;23.67;95772.03;6189690;28;103797;-41
2022/03/24 05:11:13;;;;;;;20.60;18.50;;;;;;;21.72;24.07;95781.09;6214064;28;103882;-44
2022/03/24 05:14:15;;;;;;;24.07;21.70;;;;;;;21.67;23.30;95778.47;6195602;28;104226;-43
2022/03/24 05:17:17;;;;;;;24.67;21.70;;;;;;;21.65;22.35;95775.31;6205318;28;104193;-44
2022/03/24 05:20:20;;;;;;;27.33;24.43;;;;;;;21.58;21.69;95769.56;6195899;28;103106;-41
2022/03/24 05:23:22;;;;;;;27.53;22.87;;;;;;;21.78;21.92;95771.97;6195048;28;103949;-43
2022/03/24 05:26:24;;;;;;;25.60;21.97;;;;;;;21.91;22.64;95771.31;6200134;28;104302;-42
2022/03/24 05:29:26;;;;;;;23.87;21.57;;;;;;;21.95;23.63;95772.31;6197999;28;105059;-42
2022/03/24 05:32:28;;;;;;;25.10;21.50;;;;;;;22.00;23.22;95772.22;6203831;28;104118;-42
2022/03/24 05:35:32;;;;;;;23.60;20.73;;;;;;;22.07;23.34;95769.22;6200416;28;104301;-43
2022/03/24 05:38:34;;;;;;;22.83;20.53;;;;;;;22.11;23.54;95757.69;6206262;28;103256;-42
2022/03/24 05:41:36;;;;;;;22.63;20.23;;;;;;;22.21;23.70;95767.44;6205845;28;104556;-42
2022/03/24 05:44:39;;;;;;;24.50;22.13;;;;;;;22.18;23.85;95775.19;6190491;28;103766;-44
2022/03/24 05:47:42;;;;;;;46.87;27.53;;;;;;;22.12;23.86;95769.16;6201092;28;102971;-43
2022/03/24 05:50:46;;;;;;;35.53;25.67;;;;;;;22.13;23.77;95769.94;6205898;28;103095;-42
2022/03/24 05:53:49;;;;;;;33.90;24.83;;;;;;;22.11;24.16;95768.38;6207935;28;103768;-42
2022/03/24 05:56:50;;;;;;;35.70;24.83;;;;;;;22.14;23.90;95769.66;6204295;28;103547;-42
2022/03/24 05:59:52;;;;;;;29.13;23.73;;;;;;;22.17;23.88;95768.28;6209180;28;102984;-44
2022/03/24 06:02:54;;;;;;;29.00;24.10;;;;;;;22.17;23.59;95763.75;6208932;28;103216;-42
2022/03/24 06:05:59;;;;;;;26.43;23.40;;;;;;;22.22;23.43;95757.56;6207059;28;104305;-43
2022/03/24 06:09:04;;;;;;;26.57;23.73;;;;;;;22.20;23.46;95757.06;6200894;28;103164;-42
2022/03/24 06:12:08;;;;;;;27.83;23.60;;;;;;;22.28;23.83;95772.41;6207196;28;104078;-42
2022/03/24 06:15:11;;;;;;;25.30;22.60;;;;;;;22.32;23.64;95768.06;6206681;28;104447;-43
2022/03/24 06:18:13;;;;;;;25.93;22.67;;;;;;;22.34;23.44;95773.91;6201901;28;106439;-43
2022/03/24 06:21:15;;;;;;;28.33;22.10;;;;;;;22.39;23.38;95768.50;6208018;28;103028;-42
2022/03/24 06:24:17;;;;;;;27.00;22.93;;;;;;;22.42;23.38;95770.59;6208752;28;103507;-42
2022/03/24 06:27:19;;;;;;;24.23;21.67;;;;;;;22.44;23.09;95760.44;6208675;28;103248;-42
2022/03/24 06:30:21;;;;;;;26.57;22.77;;;;;;;22.51;23.33;95754.72;6203532;28;103007;-43
2022/03/24 06:33:23;;;;;;;23.47;20.67;;;;;;;22.55;23.44;95766.41;6208823;28;103260;-42
2022/03/24 06:36:26;;;;;;;23.70;21.40;;;;;;;22.58;23.38;95761.31;6208647;28;104450;-42
2022/03/24 06:39:27;;;;;;;22.27;19.87;;;;;;;22.60;23.83;95767.16;6208478;28;104224;-44
2022/03/24 06:42:29;;;;;;;22.77;20.57;;;;;;;22.65;23.89;95760.94;6203371;28;105175;-43
2022/03/24 06:45:31;;;;;;;24.77;22.10;;;;;;;22.66;23.78;95757.97;6208042;28;103589;-43
2022/03/24 06:48:34;;;;;;;25.37;22.97;;;;;;;22.72;23.47;95760.56;6208209;28;103979;-43
2022/03/24 06:51:36;;;;;;;25.47;22.97;;;;;;;22.73;23.34;95756.81;6202854;28;104511;-44
2022/03/24 06:54:38;;;;;;;27.73;25.20;;;;;;;22.76;23.63;95754.34;6208613;28;103693;-41
2022/03/24 06:57:41;;;;;;;27.13;24.53;;;;;;;22.85;23.67;95755.28;6208462;28;103031;-43
2022/03/24 07:00:43;;;;;;;25.67;23.20;;;;;;;22.85;24.17;95749.13;6206789;28;102953;-44
2022/03/24 07:03:45;;;;;;;24.57;22.17;;;;;;;22.92;24.10;95747.66;6203429;28;104244;-43
2022/03/24 07:06:47;;;;;;;26.40;23.90;;;;;;;22.95;24.41;95749.75;6207731;28;102968;-43
2022/03/24 07:09:49;;;;;;;24.23;21.93;;;;;;;22.99;24.54;95749.94;6208140;28;103040;-43
2022/03/24 07:12:50;;;;;;;24.83;22.53;;;;;;;22.96;24.34;95755.88;6208767;28;104279;-42
2022/03/24 07:15:52;;;;;;;25.40;22.80;;;;;;;22.96;23.86;95746.00;6202094;28;103244;-44
2022/03/24 07:18:55;;;;;;;25.57;22.27;;;;;;;22.96;24.49;95745.19;6208184;28;103191;-42
2022/03/24 07:21:57;;;;;;;23.13;20.93;;;;;;;22.95;23.90;95746.28;6207761;28;103696;-43
2022/03/24 07:24:59;;;;;;;24.50;22.20;;;;;;;23.01;23.88;95747.78;6202473;28;103165;-43
2022/03/24 07:28:01;;;;;;;22.90;20.83;;;;;;;23.02;24.39;95749.38;6207973;28;103801;-42
2022/03/24 07:31:10;;;;;;;22.20;20.10;;;;;;;23.03;24.09;95747.50;6207613;28;104008;-42
2022/03/24 07:34:12;;;;;;;23.03;20.83;;;;;;;22.99;24.15;95734.72;6208043;28;103249;-44
2022/03/24 07:37:16;;;;;;;22.20;19.87;;;;;;;23.05;23.99;95740.78;6201158;28;103212;-42
2022/03/24 07:40:18;;;;;;;22.83;20.57;;;;;;;23.07;23.92;95748.50;6207868;28;103101;-43
2022/03/24 07:43:20;;;;;;;22.13;19.93;;;;;;;23.08;23.73;95742.84;6207790;28;103334;-43
2022/03/24 07:46:22;;;;;;;21.27;19.17;;;;;;;23.11;23.68;95744.16;6202180;28;103197;-42
2022/03/24 07:49:24;;;;;;;19.60;17.70;;;;;;;23.12;23.79;95737.72;6207238;28;104297;-43
2022/03/24 07:52:30;;;;;;;21.57;19.50;;;;;;;23.11;23.48;95742.25;6207746;28;103933;-42
2022/03/24 07:55:32;;;;;;;20.53;18.43;;;;;;;23.11;23.95;95742.25;6207644;28;103204;-43
2022/03/24 07:58:34;;;;;;;20.03;17.90;;;;;;;23.13;24.14;95740.09;6204390;28;105184;-43
2022/03/24 08:01:36;;;;;;;20.17;18.20;;;;;;;23.13;23.78;95724.06;6211351;28;103293;-43
2022/03/24 08:04:38;;;;;;;21.10;18.90;;;;;;;23.13;23.89;95734.75;6211794;28;103174;-42
2022/03/24 08:07:40;;;;;;;20.77;18.97;;;;;;;23.16;23.68;95718.13;6211142;28;104240;-42
2022/03/24 08:10:46;;;;;;;21.10;18.90;;;;;;;23.17;24.03;95725.06;6204941;28;103268;-43
2022/03/24 08:13:53;;;;;;;22.40;20.20;;;;;;;23.17;23.40;95725.06;6211634;28;104243;-42
2022/03/24 08:16:55;;;;;;;21.07;19.20;;;;;;;23.18;23.45;95725.84;6210943;28;102877;-43
2022/03/24 08:19:57;;;;;;;21.07;19.10;;;;;;;23.19;23.85;95722.13;6206463;28;103327;-43
2022/03/24 08:23:00;;;;;;;22.43;20.33;;;;;;;23.17;23.51;95719.72;6211447;28;103909;-43
2022/03/24 08:26:02;;;;;;;22.27;20.17;;;;;;;23.21;23.80;95715.38;6210851;28;103071;-43
2022/03/24 08:29:04;;;;;;;21.57;19.63;;;;;;;23.22;23.80;95716.97;6210851;28;103206;-43
2022/03/24 08:32:06;;;;;;;21.80;19.80;;;;;;;23.19;23.40;95706.88;6205446;28;102970;-42
2022/03/24 08:35:09;;;;;;;20.93;18.90;;;;;;;23.29;23.77;95706.69;6211054;28;103036;-43
2022/03/24 08:38:11;;;;;;;19.40;17.50;;;;;;;23.32;24.14;95702.63;6210531;28;102720;-43
2022/03/24 08:41:13;;;;;;;20.80;18.60;;;;;;;23.35;24.02;95703.91;6206644;28;102801;-44
2022/03/24 08:44:15;;;;;;;21.00;18.90;;;;;;;23.38;23.85;95698.81;6210420;28;103264;-42
2022/03/24 08:47:16;;;;;;;20.40;18.40;;;;;;;23.44;23.81;95697.59;6210709;28;104102;-41
2022/03/24 08:50:18;;;;;;;19.20;17.30;;;;;;;23.52;23.95;95693.44;6210456;28;102803;-41
2022/03/24 08:53:20;;;;;;;20.70;18.80;;;;;;;23.55;23.93;95698.19;6206044;28;104521;-41
2022/03/24 08:56:22;;;;;;;18.97;17.20;;;;;;;23.56;23.86;95686.41;6210735;28;104049;-41
2022/03/24 08:59:24;;;;;;;19.80;17.80;;;;;;;23.58;23.82;95692.25;6210789;28;104117;-41
2022/03/24 09:02:27;;;;;;;18.87;17.17;;;;;;;23.57;23.76;95685.31;6210558;28;103176;-41
2022/03/24 09:05:29;;;;;;;19.03;17.23;;;;;;;23.60;24.04;95684.72;6202593;28;103414;-41
2022/03/24 09:08:30;;;;;;;19.33;17.53;;;;;;;23.53;23.90;95674.44;6210435;28;103986;-41
2022/03/24 09:11:32;;;;;;;19.03;17.23;;;;;;;23.54;23.81;95670.69;6211388;28;105155;-42
2022/03/24 09:14:34;;;;;;;19.40;17.47;;;;;;;23.60;23.48;95672.16;6204981;28;104173;-41
2022/03/24 09:17:39;;;;;;;17.87;16.17;;;;;;;23.58;24.05;95670.88;6209922;28;103826;-41
2022/03/24 09:20:42;;;;;;;18.20;16.60;;;;;;;23.59;23.70;95667.91;6209671;28;102958;-41
2022/03/24 09:23:44;;;;;;;18.10;16.50;;;;;;;23.59;23.54;95669.78;6210278;28;103930;-42
2022/03/24 09:26:47;;;;;;;18.20;16.40;;;;;;;23.58;24.00;95662.84;6204740;28;104166;-42
2022/03/24 09:29:52;;;;;;;18.50;16.70;;;;;;;23.58;23.60;95665.53;6210019;28;106059;-42
2022/03/24 09:32:54;;;;;;;17.50;16.00;;;;;;;23.58;23.83;95655.63;6210654;28;103461;-42
2022/03/24 09:35:56;;;;;;;17.07;15.57;;;;;;;23.57;23.57;95647.91;6209560;28;103303;-41
2022/03/24 09:38:58;;;;;;;17.20;15.63;;;;;;;23.58;23.79;95652.16;6204174;28;104257;-41
2022/03/24 09:42:00;;;;;;;17.20;15.63;;;;;;;23.58;23.53;95646.81;6209385;28;103933;-41
2022/03/24 09:45:05;;;;;;;17.60;16.00;;;;;;;23.57;23.87;95647.91;6209963;28;103261;-41
2022/03/24 09:48:07;;;;;;;16.27;14.77;;;;;;;23.58;23.92;95641.47;6204079;28;103206;-42
2022/03/24 09:51:10;;;;;;;15.63;14.13;;;;;;;23.56;23.57;95631.09;6208916;28;103030;-42
2022/03/24 09:54:12;;;;;;;16.10;14.60;;;;;;;23.53;24.17;95620.22;6209031;28;102685;-41
2022/03/24 09:57:17;;;;;;;17.40;15.63;;;;;;;23.57;23.95;95631.88;6208909;28;103324;-41
2022/03/24 10:00:20;;;;;;;16.10;14.67;;;;;;;23.53;23.89;95623.69;6204211;28;103956;-41
2022/03/24 10:03:22;;;;;;;16.43;15.03;;;;;;;23.47;23.66;95610.72;6209673;28;103965;-41
2022/03/24 10:06:24;;;;;;;16.27;14.87;;;;;;;23.51;23.87;95619.72;6208540;28;103167;-41
2022/03/24 10:09:37;;;;;;;15.50;14.07;;;;;;;23.51;23.94;95611.69;6203594;28;105618;-41
2022/03/24 10:12:39;;;;;;;16.10;14.70;;;;;;;23.51;23.69;95615.16;6207061;28;102974;-42
2022/03/24 10:15:41;;;;;;;16.33;14.83;;;;;;;23.48;23.73;95613.09;6208793;28;103908;-41
2022/03/24 10:19:06;;;;;;;15.47;13.93;;;;;;;23.48;23.66;95606.97;6207850;28;103055;-42
2022/03/24 10:22:10;;;;;;;14.93;13.60;;;;;;;23.47;23.63;95600.84;6203233;28;103023;-42
2022/03/24 10:25:27;;;;;;;16.17;14.57;;;;;;;23.45;23.87;95596.88;6208590;28;103934;-43
2022/03/24 10:28:29;;;;;;;15.50;14.10;;;;;;;23.44;23.80;95592.63;6208191;28;103204;-42
2022/03/24 10:31:35;;;;;;;15.67;14.27;;;;;;;23.39;24.09;95574.06;6203215;28;102775;-42
2022/03/24 10:34:39;;;;;;;15.57;14.17;;;;;;;23.39;24.07;95572.19;6207921;28;103550;-42
2022/03/24 10:37:51;;;;;;;14.47;13.17;;;;;;;23.38;24.21;95575.94;6208408;28;104101;-42
2022/03/24 10:40:53;;;;;;;16.17;14.67;;;;;;;23.37;23.93;95573.56;6208321;28;104949;-43
2022/03/24 10:44:02;;;;;;;14.17;12.90;;;;;;;23.35;23.99;95570.38;6201737;28;102965;-43
2022/03/24 10:47:04;;;;;;;14.90;13.63;;;;;;;23.33;23.86;95561.88;6207945;28;102995;-42
2022/03/24 10:50:39;;;;;;;15.20;13.80;;;;;;;23.28;24.02;95557.44;6207594;28;103922;-42
2022/03/24 10:53:43;;;;;;;14.93;13.60;;;;;;;23.26;23.91;95533.69;6201901;28;103980;-42
2022/03/24 10:57:06;;;;;;;14.80;13.50;;;;;;;23.25;23.83;95542.81;6208284;28;103391;-42
2022/03/24 11:00:11;;;;;;;15.30;13.93;;;;;;;23.20;24.09;95537.56;6207892;28;103384;-42
2022/03/24 11:03:16;;;;;;;17.20;15.60;;;;;;;23.21;24.63;95541.03;6208253;28;104240;-44
2022/03/24 11:06:22;;;;;;;18.20;16.60;;;;;;;23.18;24.60;95539.72;6202424;28;103322;-43
2022/03/24 11:09:27;;;;;;;16.77;15.37;;;;;;;23.16;24.72;95535.78;6207672;28;102797;-44
2022/03/24 11:12:36;;;;;;;17.63;16.03;;;;;;;23.08;24.89;95512.47;6208399;28;105424;-43
2022/03/24 11:15:39;;;;;;;18.90;17.30;;;;;;;23.10;24.77;95520.97;6202142;28;104034;-44
2022/03/24 11:18:41;;;;;;;19.57;17.93;;;;;;;23.11;24.91;95522.56;6207194;28;103030;-43
2022/03/24 11:21:43;;;;;;;18.73;17.17;;;;;;;23.09;25.19;95524.75;6208388;28;102726;-43
2022/03/24 11:24:46;;;;;;;19.30;17.60;;;;;;;23.08;25.48;95515.94;6207606;28;102927;-43
2022/03/24 11:27:50;;;;;;;20.53;18.73;;;;;;;23.07;25.51;95506.34;6201877;28;103206;-42
2022/03/24 11:30:52;;;;;;;20.43;18.50;;;;;;;23.08;26.17;95499.13;6207317;28;103130;-44
2022/03/24 11:33:56;;;;;;;21.30;19.40;;;;;;;23.07;26.13;95493.00;6211524;28;102966;-43
2022/03/24 11:36:58;;;;;;;20.73;18.90;;;;;;;23.07;25.90;95478.88;6211997;28;103034;-43
2022/03/24 11:40:16;;;;;;;20.40;18.60;;;;;;;23.00;25.60;95480.06;6206689;28;103350;-42
2022/03/24 11:43:21;;;;;;;19.83;18.20;;;;;;;23.00;25.27;95480.06;6211536;28;102967;-43
2022/03/24 11:46:33;;;;;;;20.87;18.90;;;;;;;23.01;25.40;95472.84;6211998;28;103090;-42
2022/03/24 11:49:35;;;;;;;20.07;18.37;;;;;;;22.96;25.44;95463.06;6205288;28;102952;-42
2022/03/24 11:52:37;;;;;;;20.80;18.90;;;;;;;22.96;25.60;95464.94;6211774;28;105505;-42
2022/03/24 11:55:39;;;;;;;19.10;17.40;;;;;;;22.93;25.29;95458.34;6210943;28;103154;-42
2022/03/24 11:58:53;;;;;;;18.60;17.00;;;;;;;22.93;25.34;95452.22;6212018;28;103376;-41
2022/03/24 12:02:18;;;;;;;20.10;18.30;;;;;;;22.90;25.70;95447.47;6204638;28;103154;-41
2022/03/24 12:05:20;;;;;;;19.33;17.70;;;;;;;22.90;25.24;95444.81;6211203;28;103933;-41
2022/03/24 12:08:28;;;;;;;18.73;17.13;;;;;;;22.89;25.66;95445.91;6211769;28;102944;-42
2022/03/24 12:11:33;;;;;;;19.40;17.70;;;;;;;22.88;25.29;95436.31;6205178;28;103111;-42
2022/03/24 12:14:41;;;;;;;19.27;17.57;;;;;;;22.89;25.63;95452.03;6211420;28;104174;-42
2022/03/24 12:18:03;;;;;;;19.33;17.53;;;;;;;22.87;25.14;95442.75;6210776;28;103298;-41
2022/03/24 12:21:04;;;;;;;18.03;16.53;;;;;;;22.86;25.48;95438.50;6210748;28;103107;-42
2022/03/24 12:24:18;;;;;;;19.30;17.57;;;;;;;22.84;25.57;95436.09;6205285;28;103186;-42
2022/03/24 12:27:20;;;;;;;18.20;16.40;;;;;;;22.85;25.21;95434.22;6210805;28;103412;-42
2022/03/24 12:30:23;;;;;;;17.40;15.90;;;;;;;22.85;25.13;95434.22;6210784;28;104095;-42
2022/03/24 12:33:32;;;;;;;17.60;16.10;;;;;;;22.83;25.25;95420.41;6205381;28;104872;-42
2022/03/24 12:36:40;;;;;;;17.63;16.13;;;;;;;22.81;25.62;95422.59;6210839;28;102833;-42
2022/03/24 12:39:42;;;;;;;17.90;16.33;;;;;;;22.80;25.26;95418.34;6210720;28;104051;-42
2022/03/24 12:42:49;;;;;;;18.90;17.30;;;;;;;22.69;25.23;95399.91;6209930;28;103246;-42
2022/03/24 12:45:51;;;;;;;16.93;15.47;;;;;;;22.77;25.53;95406.41;6204720;28;103146;-42
2022/03/24 12:49:09;;;;;;;18.17;16.47;;;;;;;22.78;25.21;95407.19;6209621;28;103993;-42
2022/03/24 12:52:11;;;;;;;17.60;16.10;;;;;;;22.76;25.08;95402.16;6210271;28;104108;-42
2022/03/24 12:55:33;;;;;;;17.13;15.63;;;;;;;22.75;25.71;95408.56;6205191;28;103956;-42
2022/03/24 12:58:35;;;;;;;17.00;15.60;;;;;;;22.67;25.21;95385.25;6208711;28;102846;-42
2022/03/24 13:01:39;;;;;;;16.57;15.17;;;;;;;22.75;25.56;95399.78;6209783;28;103223;-42
2022/03/24 13:04:47;;;;;;;16.20;14.80;;;;;;;22.76;25.09;95393.34;6210549;28;104046;-42
2022/03/24 13:07:52;;;;;;;16.10;14.90;;;;;;;22.74;25.29;95390.22;6204721;28;103185;-42
2022/03/24 13:11:02;;;;;;;16.47;14.97;;;;;;;22.72;25.00;95377.16;6209723;28;103462;-42
2022/03/24 13:14:09;;;;;;;18.00;16.47;;;;;;;22.71;25.30;95367.59;6209461;28;102883;-41
2022/03/24 13:17:13;;;;;;;16.50;15.10;;;;;;;22.72;25.07;95373.72;6203061;28;103311;-42
2022/03/24 13:20:15;;;;;;;16.40;14.90;;;;;;;22.70;25.11;95374.81;6210144;28;103458;-42
2022/03/24 13:23:20;;;;;;;15.23;13.93;;;;;;;22.70;25.49;95363.34;6209979;28;102968;-42
2022/03/24 13:26:22;;;;;;;15.87;14.47;;;;;;;22.68;25.56;95357.50;6209520;28;103236;-42
2022/03/24 13:29:38;;;;;;;15.50;14.20;;;;;;;22.69;25.10;95362.56;6203694;28;104363;-42
2022/03/24 13:32:41;;;;;;;16.70;15.20;;;;;;;22.68;25.15;95360.97;6209005;28;102942;-42
2022/03/24 13:35:50;;;;;;;15.20;13.97;;;;;;;22.69;25.27;95356.44;6209326;28;103467;-43
2022/03/24 13:38:52;;;;;;;15.63;14.13;;;;;;;22.67;25.42;95351.38;6204084;28;103267;-42
2022/03/24 13:41:56;;;;;;;15.67;14.33;;;;;;;22.67;25.55;95347.91;6208989;28;103804;-43
2022/03/24 13:44:58;;;;;;;15.20;14.00;;;;;;;22.66;25.13;95344.47;6209424;28;102990;-42
2022/03/24 13:48:15;;;;;;;15.47;14.00;;;;;;;22.61;25.09;95333.91;6208855;28;103042;-43
2022/03/24 13:51:19;;;;;;;14.60;13.40;;;;;;;22.65;25.14;95332.22;6204628;28;104058;-42
2022/03/24 13:54:21;;;;;;;16.50;14.90;;;;;;;22.65;25.63;95334.88;6208826;28;104022;-42
2022/03/24 13:57:23;;;;;;;15.60;14.20;;;;;;;22.65;25.17;95334.88;6208986;28;105216;-43
2022/03/24 14:00:39;;;;;;;15.23;13.73;;;;;;;22.65;25.06;95329.53;6208625;28;103148;-42